Time;durP1;ratioP1;P1;durP2;ratioP2;P2;SDS_P1;SDS_P2;PMS_P1;PMS_P2;Temp;Humidity;BMP_temperature;BMP_pressure;BME280_temperature;BME280_humidity;BME280_pressure;Samples;Min_cycle;Max_cycle;Signal;HPM_P1;HPM_P2
2023/03/06 00:00:35;;;;;;;7.25;2.10;;;5.80;99.90;;;;;;5010942;28;20033;-62
2023/03/06 00:03:01;;;;;;;6.95;1.60;;;6.50;99.90;;;;;;5009333;28;20046;-62
2023/03/06 00:05:26;;;;;;;8.02;1.70;;;5.20;1.00;;;;;;5010599;28;20044;-62
2023/03/06 00:07:52;;;;;;;5.50;1.80;;;6.40;1.00;;;;;;5010212;28;20065;-63
2023/03/06 00:10:24;;;;;;;7.35;1.52;;;6.60;1.00;;;;;;5010408;28;20053;-63
2023/03/06 00:12:55;;;;;;;4.85;1.60;;;5.70;1.00;;;;;;5011155;28;20495;-62
2023/03/06 00:15:21;;;;;;;5.13;1.48;;;4.90;1.00;;;;;;5010724;28;20042;-62
2023/03/06 00:17:47;;;;;;;2.42;1.30;;;5.00;1.00;;;;;;5009980;28;20037;-62
2023/03/06 00:20:13;;;;;;;4.97;1.30;;;6.10;1.00;;;;;;5010513;28;20527;-63
2023/03/06 00:22:39;;;;;;;3.30;1.20;;;4.90;1.00;;;;;;5010078;28;20050;-62
2023/03/06 00:25:06;;;;;;;8.55;1.83;;;5.50;1.00;;;;;;5008578;28;20034;-62
2023/03/06 00:27:32;;;;;;;6.15;1.40;;;6.00;1.00;;;;;;5010244;28;20040;-62
2023/03/06 00:29:59;;;;;;;2.17;1.27;;;5.20;60.10;;;;;;5008775;28;20317;-63
2023/03/06 00:32:26;;;;;;;4.28;1.48;;;6.50;99.40;;;;;;5010285;28;20038;-62
2023/03/06 00:34:53;;;;;;;4.68;1.52;;;4.80;99.90;;;;;;5010820;28;20484;-62
2023/03/06 00:37:20;;;;;;;4.80;1.20;;;5.60;99.90;;;;;;5010439;28;20037;-62
2023/03/06 00:39:48;;;;;;;3.58;1.30;;;4.90;99.90;;;;;;5010460;28;20033;-62
2023/03/06 00:42:14;;;;;;;8.82;1.02;;;6.60;99.90;;;;;;5010465;28;20081;-62
2023/03/06 00:44:39;;;;;;;2.67;0.93;;;6.50;1.00;;;;;;5010349;28;20041;-63
2023/03/06 00:47:05;;;;;;;3.67;0.90;;;5.90;1.00;;;;;;5010311;28;20403;-63
2023/03/06 00:49:31;;;;;;;1.20;0.60;;;6.70;6.80;;;;;;5010289;28;20046;-62
2023/03/06 00:51:56;;;;;;;0.57;0.57;;;5.70;1.00;;;;;;5009857;28;20037;-62
2023/03/06 00:54:22;;;;;;;2.70;0.70;;;6.00;7.40;;;;;;5010277;28;20034;-62
2023/03/06 00:56:47;;;;;;;1.05;0.60;;;6.40;40.10;;;;;;5025468;28;20089;-62
2023/03/06 00:59:13;;;;;;;3.25;0.88;;;4.80;87.60;;;;;;5010348;28;20044;-63
2023/03/06 01:01:39;;;;;;;3.83;1.10;;;4.60;1.00;;;;;;5009988;28;20091;-62
2023/03/06 01:04:04;;;;;;;4.38;1.10;;;5.20;1.00;;;;;;5010170;28;20034;-63
2023/03/06 01:06:30;;;;;;;1.70;0.80;;;5.90;58.00;;;;;;5010408;28;20041;-63
2023/03/06 01:08:56;;;;;;;1.85;0.85;;;4.60;76.90;;;;;;5009933;28;20085;-63
2023/03/06 01:11:22;;;;;;;2.85;1.27;;;3.70;55.30;;;;;;5010139;28;20038;-63
2023/03/06 01:13:48;;;;;;;2.28;0.80;;;3.50;96.10;;;;;;5009987;28;20428;-63
2023/03/06 01:16:15;;;;;;;15.23;2.28;;;4.70;99.90;;;;;;5009953;28;20545;-63
2023/03/06 01:18:41;;;;;;;5.45;1.17;;;3.30;99.90;;;;;;5011864;28;20048;-63
2023/03/06 01:21:07;;;;;;;4.80;1.35;;;4.90;99.90;;;;;;5013504;28;20571;-63
2023/03/06 01:23:33;;;;;;;3.83;1.30;;;5.40;1.00;;;;;;5013319;28;20042;-63
2023/03/06 01:25:59;;;;;;;3.35;1.15;;;4.50;26.70;;;;;;5013863;28;20060;-62
2023/03/06 01:28:26;;;;;;;5.50;1.13;;;5.60;99.90;;;;;;5013123;28;20044;-62
2023/03/06 01:30:52;;;;;;;10.25;1.20;;;5.70;99.90;;;;;;5013762;28;20419;-62
2023/03/06 01:33:17;;;;;;;6.43;1.08;;;5.40;1.00;;;;;;5013351;28;20040;-63
2023/03/06 01:35:43;;;;;;;11.43;1.25;;;5.60;99.90;;;;;;5012432;28;20053;-63
2023/03/06 01:38:09;;;;;;;1.75;0.95;;;5.70;99.90;;;;;;5012722;28;20495;-63
2023/03/06 01:40:36;;;;;;;3.83;1.20;;;4.40;1.00;;;;;;5013449;28;20507;-63
2023/03/06 01:43:26;;;;;;;2.58;0.70;;;3.70;91.50;;;;;;5012812;28;20046;-62
2023/03/06 01:46:20;;;;;;;6.70;0.88;;;5.00;99.90;;;;;;4999130;28;20042;-62
2023/03/06 01:48:47;;;;;;;5.45;0.77;;;5.50;1.00;;;;;;5028262;28;20099;-63
2023/03/06 01:51:14;;;;;;;3.58;0.80;;;5.90;26.50;;;;;;5011565;28;20562;-62
2023/03/06 01:53:42;;;;;;;1.75;0.60;;;4.00;99.90;;;;;;5013169;28;20073;-62
2023/03/06 01:56:09;;;;;;;2.38;0.70;;;3.60;99.90;;;;;;5012708;28;20038;-62
2023/03/06 01:58:35;;;;;;;5.10;0.70;;;5.80;99.90;;;;;;5012722;28;20132;-62
2023/03/06 02:01:01;;;;;;;7.57;0.75;;;4.70;1.00;;;;;;5012733;28;20152;-63
2023/03/06 02:03:27;;;;;;;1.42;0.80;;;3.50;14.90;;;;;;5012795;28;20126;-62
2023/03/06 02:05:54;;;;;;;2.10;0.82;;;5.70;99.90;;;;;;5013072;28;20037;-63
2023/03/06 02:08:22;;;;;;;1.98;0.70;;;3.70;99.90;;;;;;5012670;28;20042;-63
2023/03/06 02:11:16;;;;;;;6.13;0.70;;;4.10;99.90;;;;;;5011915;28;20034;-63
2023/03/06 02:13:45;;;;;;;1.10;0.63;;;4.60;1.00;;;;;;5026803;28;20046;-62
2023/03/06 02:16:12;;;;;;;2.20;0.73;;;4.50;1.00;;;;;;5026930;28;20037;-63
2023/03/06 02:18:39;;;;;;;6.47;0.80;;;4.50;99.90;;;;;;5010098;28;20038;-62
2023/03/06 02:21:08;;;;;;;2.20;0.80;;;3.20;99.90;;;;;;5011986;28;20049;-62
2023/03/06 02:23:52;;;;;;;4.63;1.00;;;5.50;1.00;;;;;;5012388;28;20404;-62
2023/03/06 02:26:19;;;;;;;2.83;0.88;;;5.50;1.00;;;;;;5012180;28;20037;-62
2023/03/06 02:28:45;;;;;;;2.17;0.90;;;5.50;99.40;;;;;;5011967;28;20042;-62
2023/03/06 02:31:29;;;;;;;3.58;1.17;;;5.50;99.90;;;;;;5026544;28;20048;-62
2023/03/06 02:34:27;;;;;;;0.90;0.90;;;4.40;99.90;;;;;;5012021;28;20495;-62
2023/03/06 02:37:03;;;;;;;1.73;0.80;;;3.80;99.90;;;;;;5011550;28;20140;-62
2023/03/06 02:39:32;;;;;;;1.75;0.95;;;3.20;99.90;;;;;;5011931;28;20041;-63
2023/03/06 02:41:58;;;;;;;2.88;1.10;;;5.40;1.00;;;;;;5012018;28;20133;-63
2023/03/06 02:44:26;;;;;;;3.50;0.90;;;4.80;1.00;;;;;;5012027;28;20496;-63
2023/03/06 02:46:51;;;;;;;1.33;0.80;;;3.10;1.00;;;;;;5011775;28;20336;-63
2023/03/06 02:49:17;;;;;;;1.65;0.85;;;3.90;1.00;;;;;;5011960;28;20026;-62
2023/03/06 02:51:43;;;;;;;0.90;0.90;;;3.00;10.20;;;;;;5011982;28;20084;-62
2023/03/06 02:54:09;;;;;;;1.42;1.02;;;5.40;37.60;;;;;;5011946;28;20057;-62
2023/03/06 02:56:35;;;;;;;2.70;1.17;;;5.30;65.60;;;;;;5010559;28;20046;-63
2023/03/06 02:59:01;;;;;;;2.47;1.23;;;3.00;91.30;;;;;;5011469;28;20408;-63
2023/03/06 03:01:26;;;;;;;2.38;1.23;;;3.90;99.90;;;;;;5007685;28;20093;-62
2023/03/06 03:03:52;;;;;;;2.50;1.48;;;3.70;99.90;;;;;;5004850;28;20056;-62
2023/03/06 03:06:17;;;;;;;2.78;1.25;;;4.70;99.90;;;;;;5010031;28;20112;-63
2023/03/06 03:08:43;;;;;;;2.03;1.30;;;5.50;99.90;;;;;;5011748;28;20446;-63
2023/03/06 03:11:09;;;;;;;2.60;1.10;;;3.60;99.90;;;;;;4997605;28;20049;-63
2023/03/06 03:13:35;;;;;;;3.65;1.10;;;5.50;99.90;;;;;;5010215;28;20503;-63
2023/03/06 03:16:03;;;;;;;1.67;1.23;;;5.40;99.90;;;;;;5012085;28;20038;-63
2023/03/06 03:18:29;;;;;;;1.83;1.20;;;5.20;99.90;;;;;;5011537;28;20048;-63
2023/03/06 03:20:55;;;;;;;1.20;1.10;;;5.30;99.90;;;;;;5011379;28;20529;-63
2023/03/06 03:23:21;;;;;;;4.30;1.25;;;3.90;99.90;;;;;;5010506;28;20052;-63
2023/03/06 03:25:46;;;;;;;4.72;1.30;;;3.20;99.90;;;;;;5011608;28;20038;-63
2023/03/06 03:28:12;;;;;;;2.05;1.30;;;5.40;99.90;;;;;;5010929;28;20141;-63
2023/03/06 03:30:39;;;;;;;2.22;1.20;;;3.30;99.90;;;;;;5011552;28;20627;-63
2023/03/06 03:33:05;;;;;;;4.55;1.60;;;3.30;99.90;;;;;;5011391;28;20045;-63
2023/03/06 03:35:31;;;;;;;3.08;1.35;;;4.30;99.90;;;;;;5011373;28;20046;-63
2023/03/06 03:37:56;;;;;;;2.83;1.40;;;3.00;99.90;;;;;;5009805;28;20519;-63
2023/03/06 03:40:22;;;;;;;4.10;1.20;;;5.40;99.90;;;;;;5004894;28;20786;-63
2023/03/06 03:42:48;;;;;;;3.42;1.40;;;3.50;99.90;;;;;;5003436;28;20466;-63
2023/03/06 03:45:13;;;;;;;3.80;2.10;;;3.30;99.90;;;;;;5011602;28;20034;-63
2023/03/06 03:47:39;;;;;;;2.88;1.38;;;5.50;99.90;;;;;;5011357;28;20042;-63
2023/03/06 03:50:06;;;;;;;5.22;1.42;;;5.40;99.90;;;;;;5011492;28;20041;-63
2023/03/06 03:52:32;;;;;;;2.47;1.30;;;3.00;99.90;;;;;;5009856;28;20091;-63
2023/03/06 03:54:57;;;;;;;3.00;1.52;;;3.20;99.90;;;;;;5010864;28;20050;-63
2023/03/06 03:57:23;;;;;;;3.20;1.45;;;3.20;99.90;;;;;;5010621;28;20116;-63
2023/03/06 03:59:48;;;;;;;2.45;1.38;;;5.40;99.90;;;;;;5010604;28;20458;-63
2023/03/06 04:02:14;;;;;;;5.32;1.30;;;5.30;99.90;;;;;;5002262;28;20056;-63
2023/03/06 04:04:39;;;;;;;4.97;1.20;;;4.10;99.90;;;;;;5010985;28;20385;-63
2023/03/06 04:07:05;;;;;;;3.42;1.40;;;4.30;99.90;;;;;;5011094;28;20034;-63
2023/03/06 04:09:31;;;;;;;3.78;1.40;;;4.70;99.90;;;;;;5010717;28;20048;-63
2023/03/06 04:11:57;;;;;;;3.67;1.40;;;4.30;99.90;;;;;;5010958;28;20092;-63
2023/03/06 04:14:23;;;;;;;3.17;1.45;;;3.00;99.90;;;;;;5011269;28;20392;-63
2023/03/06 04:16:48;;;;;;;12.73;2.75;;;4.80;99.90;;;;;;5011033;28;20041;-63
2023/03/06 04:19:14;;;;;;;2.78;1.40;;;3.00;99.90;;;;;;5010918;28;20650;-63
2023/03/06 04:21:39;;;;;;;6.22;1.63;;;3.10;99.90;;;;;;5010391;28;20037;-63
2023/03/06 04:24:05;;;;;;;3.15;1.42;;;4.10;99.90;;;;;;5010509;28;20531;-64
2023/03/06 04:26:31;;;;;;;3.10;1.45;;;5.40;99.90;;;;;;5010480;28;20097;-63
2023/03/06 04:28:57;;;;;;;2.15;1.40;;;3.20;99.90;;;;;;5010244;28;20037;-63
2023/03/06 04:31:22;;;;;;;4.18;1.73;;;4.60;99.90;;;;;;5011065;28;20408;-63
2023/03/06 04:33:48;;;;;;;2.55;1.48;;;5.00;99.90;;;;;;5010009;28;20038;-63
2023/03/06 04:36:27;;;;;;;1.55;1.45;;;3.00;99.90;;;;;;5010674;28;20148;-63
2023/03/06 04:38:52;;;;;;;3.40;2.20;;;5.30;99.90;;;;;;5010216;28;20117;-63
2023/03/06 04:41:18;;;;;;;3.10;2.40;;;5.40;99.90;;;;;;5010460;28;20161;-63
2023/03/06 04:43:45;;;;;;;7.13;3.03;;;4.10;99.90;;;;;;5010537;28;20042;-63
2023/03/06 04:46:10;;;;;;;3.70;2.05;;;3.30;99.90;;;;;;5009734;28;20406;-63
2023/03/06 04:48:36;;;;;;;5.10;1.88;;;3.10;99.90;;;;;;5010344;28;20042;-63
2023/03/06 04:51:01;;;;;;;5.18;1.85;;;5.00;99.90;;;;;;5010234;28;20034;-63
2023/03/06 04:53:27;;;;;;;233.00;10.75;;;4.60;99.90;;;;;;5026894;28;20549;-63
2023/03/06 04:55:53;;;;;;;7.22;1.40;;;4.80;99.90;;;;;;5014036;28;20132;-63
2023/03/06 04:58:19;;;;;;;5.07;1.60;;;2.60;99.90;;;;;;5014242;28;20037;-63
2023/03/06 05:00:45;;;;;;;3.30;1.52;;;5.20;99.90;;;;;;5029102;28;20038;-63
2023/03/06 05:03:11;;;;;;;3.67;1.42;;;2.60;99.90;;;;;;5013509;28;20064;-63
2023/03/06 05:05:37;;;;;;;7.35;1.60;;;2.80;99.90;;;;;;5014343;28;20468;-62
2023/03/06 05:08:02;;;;;;;3.75;1.77;;;4.80;99.90;;;;;;5013355;28;20149;-63
2023/03/06 05:10:28;;;;;;;6.40;1.55;;;3.60;99.90;;;;;;5013515;28;20672;-63
2023/03/06 05:12:53;;;;;;;5.18;1.50;;;2.80;99.90;;;;;;5001744;28;20796;-62
2023/03/06 05:15:19;;;;;;;4.30;1.58;;;3.50;99.90;;;;;;5019851;28;20036;-62
2023/03/06 05:17:46;;;;;;;4.00;1.50;;;2.20;99.90;;;;;;5009419;28;20527;-63
2023/03/06 05:20:13;;;;;;;2.20;1.45;;;4.70;99.90;;;;;;5013446;28;20104;-63
2023/03/06 05:22:39;;;;;;;5.10;1.55;;;4.60;99.90;;;;;;5012521;28;20068;-63
2023/03/06 05:25:06;;;;;;;4.60;1.75;;;4.40;99.90;;;;;;5013627;28;20045;-63
2023/03/06 05:27:31;;;;;;;3.35;1.95;;;2.50;99.90;;;;;;5013161;28;20046;-63
2023/03/06 05:29:57;;;;;;;2.67;1.45;;;3.90;99.90;;;;;;5013455;28;20034;-63
2023/03/06 05:32:23;;;;;;;2.92;1.38;;;4.10;99.90;;;;;;5012494;28;20054;-62
2023/03/06 05:34:49;;;;;;;7.18;1.83;;;2.30;99.90;;;;;;5013736;28;20088;-63
2023/03/06 05:37:14;;;;;;;4.50;1.30;;;4.70;99.90;;;;;;5012885;28;20045;-63
2023/03/06 05:39:40;;;;;;;5.90;1.60;;;4.10;99.90;;;;;;5012214;28;20049;-63
2023/03/06 05:42:05;;;;;;;4.30;1.67;;;3.50;99.90;;;;;;5012830;28;20037;-63
2023/03/06 05:44:32;;;;;;;6.15;1.98;;;4.70;99.90;;;;;;5012054;28;20453;-63
2023/03/06 05:46:58;;;;;;;5.15;1.70;;;2.80;99.90;;;;;;5013592;28;20042;-62
2023/03/06 05:49:23;;;;;;;11.30;1.80;;;4.70;99.90;;;;;;5012922;28;20069;-63
2023/03/06 05:51:49;;;;;;;3.97;1.60;;;2.20;99.90;;;;;;5012605;28;20053;-63
2023/03/06 05:54:15;;;;;;;6.07;2.28;;;2.10;99.90;;;;;;5012804;28;20030;-61
2023/03/06 05:56:40;;;;;;;8.75;1.88;;;2.10;99.90;;;;;;5012437;28;20793;-62
2023/03/06 05:59:06;;;;;;;7.80;1.73;;;4.70;99.90;;;;;;5011887;28;20044;-62
2023/03/06 06:01:31;;;;;;;2.95;1.38;;;3.70;99.90;;;;;;5027643;28;20034;-62
2023/03/06 06:03:57;;;;;;;3.25;1.15;;;2.70;99.90;;;;;;5012555;28;20101;-63
2023/03/06 06:06:22;;;;;;;6.03;1.90;;;2.10;99.90;;;;;;5012636;28;20072;-62
2023/03/06 06:08:48;;;;;;;11.43;1.42;;;3.40;99.90;;;;;;5010805;28;20361;-63
2023/03/06 06:11:14;;;;;;;7.88;1.88;;;4.60;99.90;;;;;;5012906;28;20038;-62
2023/03/06 06:13:40;;;;;;;3.72;1.30;;;4.50;99.90;;;;;;5011970;28;20053;-63
2023/03/06 06:16:11;;;;;;;3.22;1.10;;;4.40;99.90;;;;;;5011881;28;20117;-63
2023/03/06 06:18:37;;;;;;;4.90;1.52;;;2.30;99.90;;;;;;5012591;28;20073;-63
2023/03/06 06:21:05;;;;;;;3.15;1.40;;;2.10;99.90;;;;;;5012131;28;20097;-63
2023/03/06 06:23:30;;;;;;;8.52;1.40;;;3.50;99.90;;;;;;5011722;28;20072;-63
2023/03/06 06:26:02;;;;;;;2.70;1.20;;;3.90;99.90;;;;;;5012683;28;20480;-63
2023/03/06 06:28:29;;;;;;;6.50;1.42;;;3.30;99.90;;;;;;5022753;28;20578;-63
2023/03/06 06:30:55;;;;;;;2.92;1.30;;;1.80;99.90;;;;;;4994298;28;20503;-63
2023/03/06 06:33:21;;;;;;;4.43;1.60;;;2.00;99.90;;;;;;5003305;28;20037;-63
2023/03/06 06:35:47;;;;;;;5.20;1.48;;;1.90;99.90;;;;;;5012802;28;20219;-63
2023/03/06 06:38:12;;;;;;;5.95;1.40;;;4.20;99.90;;;;;;5011677;28;20460;-63
2023/03/06 06:40:38;;;;;;;8.35;1.75;;;4.20;99.90;;;;;;5011212;28;20042;-63
2023/03/06 06:43:03;;;;;;;7.38;1.52;;;3.80;99.90;;;;;;5011526;28;20124;-63
2023/03/06 06:45:29;;;;;;;5.38;1.58;;;2.60;99.90;;;;;;5012599;28;20030;-63
2023/03/06 06:47:55;;;;;;;7.10;1.40;;;2.70;99.90;;;;;;5012129;28;20034;-63
2023/03/06 06:50:20;;;;;;;4.20;1.45;;;3.70;99.90;;;;;;5008715;28;20033;-63
2023/03/06 06:52:46;;;;;;;3.58;1.50;;;3.40;99.90;;;;;;5009266;28;20982;-62
2023/03/06 06:55:12;;;;;;;2.10;1.38;;;3.90;99.90;;;;;;5009426;28;20431;-62
2023/03/06 06:57:39;;;;;;;5.22;1.52;;;1.90;99.90;;;;;;5009472;28;20551;-62
2023/03/06 07:00:05;;;;;;;3.67;1.52;;;2.60;99.90;;;;;;5008747;28;20064;-63
2023/03/06 07:02:31;;;;;;;2.22;1.40;;;3.20;99.90;;;;;;5000404;28;20034;-63
2023/03/06 07:04:57;;;;;;;12.02;1.50;;;3.30;99.90;;;;;;5003741;28;20040;-63
2023/03/06 07:07:23;;;;;;;1.38;1.10;;;4.10;99.90;;;;;;5009345;28;20046;-63
2023/03/06 07:09:49;;;;;;;1.52;1.38;;;4.00;99.90;;;;;;5010695;28;20488;-63
2023/03/06 07:12:14;;;;;;;2.20;1.60;;;3.40;99.90;;;;;;5009768;28;20042;-63
2023/03/06 07:14:41;;;;;;;4.43;1.40;;;2.70;99.90;;;;;;5009925;28;20052;-63
2023/03/06 07:17:09;;;;;;;7.20;1.63;;;3.70;99.90;;;;;;5002424;28;20045;-63
2023/03/06 07:19:34;;;;;;;6.70;1.80;;;2.90;99.90;;;;;;5008227;28;20042;-63
2023/03/06 07:22:00;;;;;;;6.38;2.13;;;3.90;99.90;;;;;;5006020;28;20389;-63
2023/03/06 07:24:26;;;;;;;3.10;1.65;;;3.00;99.90;;;;;;5006927;28;20075;-63
2023/03/06 07:26:52;;;;;;;3.17;1.90;;;3.30;99.90;;;;;;5008846;28;20480;-64
2023/03/06 07:29:17;;;;;;;5.57;2.00;;;2.30;99.90;;;;;;5008770;28;20125;-63
2023/03/06 07:31:44;;;;;;;4.28;2.40;;;2.40;99.90;;;;;;5021550;28;20496;-63
2023/03/06 07:34:13;;;;;;;4.28;2.28;;;3.40;99.90;;;;;;5000249;28;20072;-63
2023/03/06 07:36:39;;;;;;;7.18;2.15;;;4.60;99.90;;;;;;5006346;28;21020;-63
2023/03/06 07:39:06;;;;;;;3.65;1.98;;;4.40;99.90;;;;;;5004355;28;20049;-63
2023/03/06 07:41:32;;;;;;;5.13;1.98;;;2.50;99.90;;;;;;5006934;28;20053;-63
2023/03/06 07:43:58;;;;;;;4.45;2.50;;;3.20;99.90;;;;;;5010193;28;20042;-63
2023/03/06 07:46:23;;;;;;;5.65;2.17;;;3.50;99.90;;;;;;5003940;28;20169;-63
2023/03/06 07:48:49;;;;;;;3.38;2.00;;;4.60;99.90;;;;;;4996785;28;20535;-63
2023/03/06 07:51:19;;;;;;;8.68;2.38;;;4.30;99.90;;;;;;5008627;28;20464;-63
2023/03/06 07:53:46;;;;;;;4.82;2.50;;;3.10;99.90;;;;;;5004574;28;20413;-63
2023/03/06 07:56:12;;;;;;;3.53;2.00;;;3.10;99.90;;;;;;5007569;28;20116;-60
2023/03/06 07:58:40;;;;;;;6.57;2.10;;;4.40;99.90;;;;;;5007104;28;20046;-62
2023/03/06 08:01:08;;;;;;;3.13;1.75;;;4.90;99.90;;;;;;5005298;28;20042;-64
2023/03/06 08:03:34;;;;;;;2.90;2.10;;;3.60;99.90;;;;;;5002423;28;20069;-64
2023/03/06 08:06:05;;;;;;;5.07;2.80;;;5.00;99.90;;;;;;5008449;28;20076;-63
2023/03/06 08:08:33;;;;;;;4.18;1.98;;;5.30;99.90;;;;;;5007348;28;20042;-63
2023/03/06 08:10:58;;;;;;;3.13;1.90;;;3.70;99.90;;;;;;5006699;28;20230;-63
2023/03/06 08:13:24;;;;;;;2.65;1.80;;;5.40;99.90;;;;;;5008347;28;20049;-63
2023/03/06 08:15:50;;;;;;;4.85;1.80;;;4.00;99.90;;;;;;4988492;28;20042;-63
2023/03/06 08:18:15;;;;;;;7.75;1.80;;;4.30;99.90;;;;;;5005135;28;20132;-63
2023/03/06 08:20:41;;;;;;;6.22;1.60;;;5.60;99.90;;;;;;5005172;28;20133;-64
2023/03/06 08:23:07;;;;;;;4.63;1.73;;;5.70;99.90;;;;;;5008073;28;20179;-64
2023/03/06 08:25:32;;;;;;;6.93;2.13;;;5.00;99.90;;;;;;5004610;28;20038;-62
2023/03/06 08:27:58;;;;;;;7.65;2.00;;;4.80;99.90;;;;;;4998407;28;20050;-64
2023/03/06 08:30:23;;;;;;;4.88;1.75;;;6.10;99.90;;;;;;5017515;28;20046;-64
2023/03/06 08:32:49;;;;;;;4.68;2.05;;;5.00;99.90;;;;;;5010022;28;20053;-64
2023/03/06 08:35:15;;;;;;;9.20;2.05;;;5.30;99.90;;;;;;5010411;28;20034;-64
2023/03/06 08:37:40;;;;;;;4.60;1.80;;;5.60;99.90;;;;;;5004167;28;20042;-65
2023/03/06 08:40:06;;;;;;;4.43;1.73;;;6.40;99.90;;;;;;5012333;28;20179;-65
2023/03/06 08:42:32;;;;;;;3.75;1.95;;;6.70;99.90;;;;;;5010522;28;20041;-65
2023/03/06 08:44:58;;;;;;;7.38;1.80;;;6.10;99.90;;;;;;5000043;28;20046;-64
2023/03/06 08:47:23;;;;;;;4.18;1.75;;;6.80;99.90;;;;;;5007774;28;20030;-65
2023/03/06 08:49:49;;;;;;;9.70;1.88;;;6.50;99.90;;;;;;5012056;28;20046;-65
2023/03/06 08:52:15;;;;;;;2.63;1.58;;;6.90;99.90;;;;;;5000065;28;20551;-65
2023/03/06 08:54:41;;;;;;;4.60;1.60;;;7.70;99.90;;;;;;5003318;28;20093;-65
2023/03/06 08:57:08;;;;;;;5.68;1.40;;;7.90;99.90;;;;;;5024141;28;20045;-64
2023/03/06 08:59:34;;;;;;;4.35;1.50;;;8.30;99.90;;;;;;5006458;28;20048;-65
2023/03/06 09:02:00;;;;;;;6.53;2.05;;;8.60;99.90;;;;;;5008858;28;20383;-65
2023/03/06 09:04:29;;;;;;;6.20;1.40;;;8.80;53.30;;;;;;5011231;28;20030;-65
2023/03/06 09:06:54;;;;;;;3.67;1.30;;;8.90;22.20;;;;;;5012275;28;20045;-65
2023/03/06 09:09:20;;;;;;;3.05;1.17;;;8.90;99.90;;;;;;5006818;28;20042;-64
2023/03/06 09:11:45;;;;;;;6.57;1.40;;;9.00;99.90;;;;;;5008092;28;20108;-64
2023/03/06 09:14:12;;;;;;;3.03;1.00;;;9.20;99.90;;;;;;5011261;28;20048;-64
2023/03/06 09:16:37;;;;;;;3.00;1.00;;;9.20;99.90;;;;;;5006112;28;20128;-64
2023/03/06 09:19:03;;;;;;;3.35;0.90;;;8.70;58.00;;;;;;5011492;28;20116;-64
2023/03/06 09:21:30;;;;;;;5.10;1.15;;;8.40;99.90;;;;;;5021396;28;20065;-64
2023/03/06 09:23:55;;;;;;;4.28;1.10;;;8.10;99.90;;;;;;5008491;28;20137;-64
2023/03/06 09:26:22;;;;;;;6.15;1.10;;;7.90;1.00;;;;;;5008117;28;20030;-64
2023/03/06 09:28:47;;;;;;;4.00;1.25;;;7.70;99.90;;;;;;5007201;28;20045;-64
2023/03/06 09:31:17;;;;;;;3.60;1.35;;;7.70;99.90;;;;;;5006233;28;20041;-64
2023/03/06 09:33:42;;;;;;;4.50;1.20;;;7.60;25.40;;;;;;5009995;28;20290;-64
2023/03/06 09:36:17;;;;;;;2.15;0.90;;;7.50;1.00;;;;;;5005646;28;20049;-64
2023/03/06 09:38:44;;;;;;;2.88;1.30;;;7.50;1.00;;;;;;5000119;28;20092;-64
2023/03/06 09:41:25;;;;;;;5.05;1.23;;;7.60;1.00;;;;;;5007812;28;20104;-64
2023/03/06 09:43:55;;;;;;;7.65;1.30;;;7.60;1.00;;;;;;5006679;28;20037;-64
2023/03/06 09:46:49;;;;;;;3.22;1.20;;;7.80;1.00;;;;;;5007223;28;20073;-62
2023/03/06 09:49:41;;;;;;;5.45;1.83;;;7.90;99.90;;;;;;4984570;28;20427;-64
2023/03/06 09:52:30;;;;;;;3.97;1.13;;;8.10;99.90;;;;;;5009007;28;20034;-62
2023/03/06 09:55:34;;;;;;;5.78;1.23;;;8.00;99.90;;;;;;5005014;28;20045;-63
2023/03/06 09:58:05;;;;;;;3.92;1.52;;;7.80;99.90;;;;;;4950905;28;20061;-64
2023/03/06 10:00:38;;;;;;;6.43;1.17;;;7.60;99.90;;;;;;5000082;28;20533;-64
2023/03/06 10:03:15;;;;;;;4.78;1.65;;;7.60;99.90;;;;;;5010066;28;20049;-64
2023/03/06 10:05:47;;;;;;;5.50;1.10;;;7.60;99.90;;;;;;5008761;28;20045;-64
2023/03/06 10:08:24;;;;;;;3.05;0.90;;;7.60;99.90;;;;;;5007087;28;20038;-64
2023/03/06 10:11:03;;;;;;;2.97;0.80;;;7.80;99.90;;;;;;5006095;28;20042;-64
2023/03/06 10:13:39;;;;;;;4.18;1.10;;;7.90;99.90;;;;;;5008287;28;20057;-64
2023/03/06 10:16:20;;;;;;;4.75;0.90;;;8.10;99.90;;;;;;5007017;28;20042;-64
2023/03/06 10:18:45;;;;;;;2.38;0.90;;;8.20;99.90;;;;;;5008852;28;20052;-64
2023/03/06 10:21:37;;;;;;;2.97;1.10;;;8.10;99.90;;;;;;5010217;28;20487;-64
2023/03/06 10:24:33;;;;;;;2.38;1.00;;;8.20;99.90;;;;;;5002725;28;20511;-64
2023/03/06 10:27:32;;;;;;;2.38;1.08;;;8.20;99.90;;;;;;5002857;28;20045;-64
2023/03/06 10:30:26;;;;;;;4.07;1.00;;;8.30;99.90;;;;;;5006402;28;20520;-64
2023/03/06 10:32:57;;;;;;;4.25;1.20;;;8.10;93.70;;;;;;5005875;28;20554;-64
2023/03/06 10:35:45;;;;;;;4.32;1.40;;;8.00;75.30;;;;;;5004593;28;20401;-64
2023/03/06 10:38:23;;;;;;;2.80;0.95;;;8.20;90.50;;;;;;5005513;28;20480;-63
2023/03/06 10:41:21;;;;;;;2.25;1.00;;;8.30;92.50;;;;;;5010009;28;20049;-64
2023/03/06 10:44:13;;;;;;;2.10;0.90;;;8.30;93.40;;;;;;5006670;28;20048;-64
2023/03/06 10:46:41;;;;;;;5.25;1.00;;;8.20;89.40;;;;;;5005706;28;20045;-63
2023/03/06 10:49:25;;;;;;;2.33;0.95;;;8.20;94.70;;;;;;5008740;28;20053;-64
2023/03/06 10:52:05;;;;;;;6.68;1.27;;;8.30;94.60;;;;;;5003824;28;20042;-63
2023/03/06 10:54:42;;;;;;;4.22;1.10;;;8.40;96.40;;;;;;5006652;28;20034;-64
2023/03/06 10:57:29;;;;;;;4.32;1.00;;;8.50;79.00;;;;;;5007515;28;20053;-64
2023/03/06 10:59:55;;;;;;;3.65;1.02;;;8.40;50.80;;;;;;5008900;28;20026;-63
2023/03/06 11:02:39;;;;;;;2.60;0.90;;;8.40;46.60;;;;;;5005743;28;20041;-63
2023/03/06 11:05:17;;;;;;;3.03;0.85;;;8.60;44.20;;;;;;5002403;28;20037;-63
2023/03/06 11:07:58;;;;;;;2.97;1.02;;;8.70;43.60;;;;;;5006751;28;20145;-63
2023/03/06 11:10:24;;;;;;;3.28;1.10;;;8.70;45.90;;;;;;5024990;28;20034;-63
2023/03/06 11:13:07;;;;;;;2.20;0.90;;;8.80;53.40;;;;;;5005799;28;20140;-63
2023/03/06 11:15:33;;;;;;;2.05;1.02;;;8.60;48.10;;;;;;5004828;28;20488;-63
2023/03/06 11:18:20;;;;;;;3.15;0.95;;;8.50;46.00;;;;;;5009587;28;20049;-63
2023/03/06 11:20:49;;;;;;;3.92;1.17;;;8.40;34.50;;;;;;5023221;28;20061;-63
2023/03/06 11:23:30;;;;;;;3.80;0.95;;;8.50;24.10;;;;;;5003404;28;20057;-63
2023/03/06 11:26:05;;;;;;;3.13;1.00;;;8.40;17.40;;;;;;5007321;28;20453;-63
2023/03/06 11:28:56;;;;;;;4.25;1.33;;;8.50;16.60;;;;;;5006372;28;20042;-63
2023/03/06 11:31:26;;;;;;;2.45;0.90;;;8.50;18.10;;;;;;5008134;28;20049;-63
2023/03/06 11:34:06;;;;;;;3.78;1.10;;;8.50;7.10;;;;;;5009711;28;20539;-63
2023/03/06 11:36:45;;;;;;;4.32;1.20;;;8.70;18.60;;;;;;5010329;28;20045;-63
2023/03/06 11:39:19;;;;;;;2.83;1.10;;;8.50;1.70;;;;;;5009060;28;20049;-63
2023/03/06 11:42:00;;;;;;;4.45;1.20;;;8.40;1.00;;;;;;5004732;28;20046;-65
2023/03/06 11:44:46;;;;;;;4.30;1.20;;;8.50;3.70;;;;;;5014153;28;20484;-65
2023/03/06 11:47:18;;;;;;;;;;;8.50;5.90;;;;;;5006213;28;20034;-64
2023/03/06 11:49:49;;;;;;;4.82;1.50;;;8.40;1.00;;;;;;5009360;28;19987;-64
2023/03/06 11:52:35;;;;;;;5.38;1.27;;;8.40;5.30;;;;;;5005480;28;20038;-64
2023/03/06 11:55:01;;;;;;;3.17;1.20;;;8.80;3.20;;;;;;5004012;28;20029;-64
2023/03/06 11:58:16;;;;;;;4.40;1.15;;;8.50;1.00;;;;;;5006255;28;20030;-64
2023/03/06 12:01:21;;;;;;;3.70;1.13;;;8.30;1.00;;;;;;4999002;28;20046;-64
2023/03/06 12:04:18;;;;;;;3.88;1.48;;;8.30;1.00;;;;;;5003324;28;20042;-64
2023/03/06 12:07:11;;;;;;;4.63;1.45;;;8.40;1.00;;;;;;4974703;28;20677;-64
2023/03/06 12:10:03;;;;;;;4.32;1.50;;;8.40;1.00;;;;;;5009696;28;20120;-64
2023/03/06 12:12:40;;;;;;;2.95;1.20;;;8.20;1.00;;;;;;4994988;28;20107;-65
2023/03/06 12:15:17;;;;;;;3.70;1.20;;;8.10;1.00;;;;;;4995588;28;20475;-65
2023/03/06 12:18:06;;;;;;;3.65;1.10;;;8.20;1.00;;;;;;5000707;28;20101;-64
2023/03/06 12:20:51;;;;;;;6.43;1.42;;;8.30;1.00;;;;;;5006535;28;20414;-64
2023/03/06 12:23:26;;;;;;;4.13;1.43;;;8.30;1.00;;;;;;5002726;28;20129;-65
2023/03/06 12:26:13;;;;;;;3.55;1.15;;;8.50;1.00;;;;;;4998964;28;20045;-64
2023/03/06 12:28:59;;;;;;;2.47;1.20;;;8.40;1.00;;;;;;5002427;28;20213;-64
2023/03/06 12:32:01;;;;;;;1.17;0.98;;;8.40;1.00;;;;;;5007164;28;20065;-64
2023/03/06 12:34:59;;;;;;;3.10;1.00;;;8.20;1.00;;;;;;5007462;28;20034;-64
2023/03/06 12:37:48;;;;;;;4.95;1.17;;;8.10;1.00;;;;;;5006354;28;20052;-64
2023/03/06 12:40:44;;;;;;;2.88;1.40;;;8.00;1.00;;;;;;4994623;28;20132;-65
2023/03/06 12:43:50;;;;;;;3.65;1.10;;;7.80;1.00;;;;;;5007759;28;20038;-64
2023/03/06 12:46:21;;;;;;;2.22;1.15;;;7.70;1.00;;;;;;5009001;28;20041;-64
2023/03/06 12:49:03;;;;;;;2.83;1.10;;;7.60;1.00;;;;;;5008320;28;20053;-64
2023/03/06 12:51:30;;;;;;;4.13;1.50;;;7.70;1.00;;;;;;5008024;28;20443;-64
2023/03/06 12:53:57;;;;;;;3.00;1.10;;;7.90;1.00;;;;;;5005959;28;20046;-65
2023/03/06 12:56:24;;;;;;;3.17;1.17;;;8.00;1.00;;;;;;5007365;28;20044;-64
2023/03/06 12:59:01;;;;;;;2.72;1.13;;;8.10;1.00;;;;;;5004320;28;20510;-64
2023/03/06 13:02:00;;;;;;;3.17;1.25;;;8.10;1.00;;;;;;5006186;28;20041;-64
2023/03/06 13:04:50;;;;;;;1.65;1.10;;;8.00;1.00;;;;;;4998158;28;20049;-64
2023/03/06 13:07:38;;;;;;;3.13;1.20;;;7.90;1.00;;;;;;5007362;28;20466;-64
2023/03/06 13:10:06;;;;;;;3.00;1.20;;;7.90;1.00;;;;;;4988469;28;20466;-64
2023/03/06 13:12:41;;;;;;;5.38;1.60;;;7.60;1.00;;;;;;5006551;28;20045;-64
2023/03/06 13:15:28;;;;;;;2.30;1.10;;;7.60;1.00;;;;;;5011257;28;20050;-64
2023/03/06 13:17:54;;;;;;;2.63;1.30;;;7.40;1.00;;;;;;5007477;28;20107;-64